sensor_id;sensor_type;location;lat;lon;timestamp;P1;durP1;ratioP1;P2;durP2;ratioP2
64157;SDS011;50449;51.528;5.076;2023-06-14T00:00:10;145.73;;;139.43;;
64157;SDS011;50449;51.528;5.076;2023-06-14T00:02:38;144.82;;;138.38;;
64157;SDS011;50449;51.528;5.076;2023-06-14T00:05:04;150.45;;;143.95;;
64157;SDS011;50449;51.528;5.076;2023-06-14T00:07:33;147.52;;;141.15;;
64157;SDS011;50449;51.528;5.076;2023-06-14T00:10:00;143.82;;;137.02;;
64157;SDS011;50449;51.528;5.076;2023-06-14T00:12:26;147.65;;;141.18;;
64157;SDS011;50449;51.528;5.076;2023-06-14T00:14:52;148.60;;;141.68;;
64157;SDS011;50449;51.528;5.076;2023-06-14T00:17:17;147.63;;;141.18;;
64157;SDS011;50449;51.528;5.076;2023-06-14T00:19:43;148.35;;;141.85;;
64157;SDS011;50449;51.528;5.076;2023-06-14T00:22:08;144.50;;;138.20;;
64157;SDS011;50449;51.528;5.076;2023-06-14T00:24:34;147.60;;;141.20;;
64157;SDS011;50449;51.528;5.076;2023-06-14T00:26:59;146.68;;;140.27;;
64157;SDS011;50449;51.528;5.076;2023-06-14T00:29:25;144.40;;;138.10;;
64157;SDS011;50449;51.528;5.076;2023-06-14T00:31:50;150.07;;;143.50;;
64157;SDS011;50449;51.528;5.076;2023-06-14T00:34:16;142.23;;;136.02;;
64157;SDS011;50449;51.528;5.076;2023-06-14T00:36:41;143.90;;;137.43;;
64157;SDS011;50449;51.528;5.076;2023-06-14T00:39:06;142.60;;;136.07;;
64157;SDS011;50449;51.528;5.076;2023-06-14T00:41:32;140.70;;;134.60;;
64157;SDS011;50449;51.528;5.076;2023-06-14T00:43:57;142.35;;;135.85;;
64157;SDS011;50449;51.528;5.076;2023-06-14T00:46:23;141.15;;;135.05;;
64157;SDS011;50449;51.528;5.076;2023-06-14T00:48:49;140.57;;;134.55;;
64157;SDS011;50449;51.528;5.076;2023-06-14T00:51:14;143.40;;;137.10;;
64157;SDS011;50449;51.528;5.076;2023-06-14T00:53:40;140.73;;;134.52;;
64157;SDS011;50449;51.528;5.076;2023-06-14T00:56:11;138.80;;;132.50;;
64157;SDS011;50449;51.528;5.076;2023-06-14T00:58:38;133.15;;;127.32;;
64157;SDS011;50449;51.528;5.076;2023-06-14T01:01:04;139.98;;;133.90;;
64157;SDS011;50449;51.528;5.076;2023-06-14T01:03:29;139.82;;;133.73;;
64157;SDS011;50449;51.528;5.076;2023-06-14T01:06:00;138.65;;;132.57;;
64157;SDS011;50449;51.528;5.076;2023-06-14T01:14:15;135.15;;;129.18;;
64157;SDS011;50449;51.528;5.076;2023-06-14T01:16:41;139.60;;;133.65;;
64157;SDS011;50449;51.528;5.076;2023-06-14T01:19:07;135.65;;;129.68;;
64157;SDS011;50449;51.528;5.076;2023-06-14T01:21:38;135.23;;;129.35;;
64157;SDS011;50449;51.528;5.076;2023-06-14T01:26:33;132.70;;;126.27;;
64157;SDS011;50449;51.528;5.076;2023-06-14T01:29:00;133.35;;;127.43;;
64157;SDS011;50449;51.528;5.076;2023-06-14T01:31:26;133.20;;;127.18;;
64157;SDS011;50449;51.528;5.076;2023-06-14T01:33:52;143.90;;;137.43;;
64157;SDS011;50449;51.528;5.076;2023-06-14T01:36:18;138.80;;;132.80;;
64157;SDS011;50449;51.528;5.076;2023-06-14T01:38:45;133.98;;;128.18;;
64157;SDS011;50449;51.528;5.076;2023-06-14T01:41:13;134.52;;;128.32;;
64157;SDS011;50449;51.528;5.076;2023-06-14T01:43:40;131.82;;;126.10;;
64157;SDS011;50449;51.528;5.076;2023-06-14T01:46:07;132.35;;;125.38;;
64157;SDS011;50449;51.528;5.076;2023-06-14T01:48:33;130.73;;;124.88;;
64157;SDS011;50449;51.528;5.076;2023-06-14T01:50:59;130.32;;;124.47;;
64157;SDS011;50449;51.528;5.076;2023-06-14T01:53:25;133.25;;;127.32;;
64157;SDS011;50449;51.528;5.076;2023-06-14T01:55:50;129.52;;;123.63;;
64157;SDS011;50449;51.528;5.076;2023-06-14T01:58:19;132.60;;;126.40;;
64157;SDS011;50449;51.528;5.076;2023-06-14T02:00:44;130.82;;;124.85;;
64157;SDS011;50449;51.528;5.076;2023-06-14T02:03:10;131.52;;;125.47;;
64157;SDS011;50449;51.528;5.076;2023-06-14T02:05:36;129.35;;;123.72;;
64157;SDS011;50449;51.528;5.076;2023-06-14T02:08:04;132.30;;;126.13;;
64157;SDS011;50449;51.528;5.076;2023-06-14T02:10:30;132.20;;;126.13;;
64157;SDS011;50449;51.528;5.076;2023-06-14T02:12:55;130.20;;;124.50;;
64157;SDS011;50449;51.528;5.076;2023-06-14T02:15:20;128.95;;;122.85;;
64157;SDS011;50449;51.528;5.076;2023-06-14T02:17:47;130.18;;;124.45;;
64157;SDS011;50449;51.528;5.076;2023-06-14T02:20:12;128.88;;;122.57;;
64157;SDS011;50449;51.528;5.076;2023-06-14T02:22:38;128.52;;;122.93;;
64157;SDS011;50449;51.528;5.076;2023-06-14T02:25:04;126.65;;;120.57;;
64157;SDS011;50449;51.528;5.076;2023-06-14T02:27:30;125.97;;;120.32;;
64157;SDS011;50449;51.528;5.076;2023-06-14T02:29:55;127.95;;;122.20;;
64157;SDS011;50449;51.528;5.076;2023-06-14T02:32:21;125.45;;;119.85;;
64157;SDS011;50449;51.528;5.076;2023-06-14T02:34:46;126.18;;;120.63;;
64157;SDS011;50449;51.528;5.076;2023-06-14T02:37:14;129.90;;;123.70;;
64157;SDS011;50449;51.528;5.076;2023-06-14T02:39:40;124.18;;;118.70;;
64157;SDS011;50449;51.528;5.076;2023-06-14T02:42:06;124.40;;;118.78;;
64157;SDS011;50449;51.528;5.076;2023-06-14T02:44:32;125.80;;;120.13;;
64157;SDS011;50449;51.528;5.076;2023-06-14T02:46:57;127.80;;;122.05;;
64157;SDS011;50449;51.528;5.076;2023-06-14T02:49:23;128.85;;;122.95;;
64157;SDS011;50449;51.528;5.076;2023-06-14T02:51:49;125.28;;;119.80;;
64157;SDS011;50449;51.528;5.076;2023-06-14T02:54:15;123.90;;;118.00;;
64157;SDS011;50449;51.528;5.076;2023-06-14T02:56:40;124.47;;;118.68;;
64157;SDS011;50449;51.528;5.076;2023-06-14T02:59:06;123.28;;;117.82;;
64157;SDS011;50449;51.528;5.076;2023-06-14T03:01:34;122.82;;;117.32;;
64157;SDS011;50449;51.528;5.076;2023-06-14T03:04:00;126.15;;;120.53;;
64157;SDS011;50449;51.528;5.076;2023-06-14T03:06:29;124.60;;;118.57;;
64157;SDS011;50449;51.528;5.076;2023-06-14T03:08:55;120.68;;;115.10;;
64157;SDS011;50449;51.528;5.076;2023-06-14T03:11:24;123.68;;;118.15;;
64157;SDS011;50449;51.528;5.076;2023-06-14T03:13:51;125.53;;;120.10;;
64157;SDS011;50449;51.528;5.076;2023-06-14T03:16:16;125.93;;;120.40;;
64157;SDS011;50449;51.528;5.076;2023-06-14T03:18:45;120.65;;;115.25;;
64157;SDS011;50449;51.528;5.076;2023-06-14T03:21:10;123.97;;;118.43;;
64157;SDS011;50449;51.528;5.076;2023-06-14T03:23:36;120.57;;;115.07;;
64157;SDS011;50449;51.528;5.076;2023-06-14T03:26:02;121.03;;;115.60;;
64157;SDS011;50449;51.528;5.076;2023-06-14T03:28:27;119.75;;;114.35;;
64157;SDS011;50449;51.528;5.076;2023-06-14T03:30:52;119.35;;;113.53;;
64157;SDS011;50449;51.528;5.076;2023-06-14T03:33:18;120.90;;;115.30;;
64157;SDS011;50449;51.528;5.076;2023-06-14T03:35:44;120.13;;;114.72;;
64157;SDS011;50449;51.528;5.076;2023-06-14T03:38:09;120.95;;;115.55;;
64157;SDS011;50449;51.528;5.076;2023-06-14T03:40:35;119.40;;;114.00;;
64157;SDS011;50449;51.528;5.076;2023-06-14T03:43:01;121.00;;;115.65;;
64157;SDS011;50449;51.528;5.076;2023-06-14T03:45:27;121.70;;;116.05;;
64157;SDS011;50449;51.528;5.076;2023-06-14T03:47:52;115.72;;;109.53;;
64157;SDS011;50449;51.528;5.076;2023-06-14T03:50:17;116.90;;;111.50;;
64157;SDS011;50449;51.528;5.076;2023-06-14T03:52:44;119.00;;;113.15;;
64157;SDS011;50449;51.528;5.076;2023-06-14T03:55:09;116.95;;;111.35;;
64157;SDS011;50449;51.528;5.076;2023-06-14T04:00:03;115.00;;;109.38;;
64157;SDS011;50449;51.528;5.076;2023-06-14T04:02:30;116.45;;;111.35;;
64157;SDS011;50449;51.528;5.076;2023-06-14T04:04:56;119.45;;;113.82;;
64157;SDS011;50449;51.528;5.076;2023-06-14T04:07:21;118.20;;;112.85;;
64157;SDS011;50449;51.528;5.076;2023-06-14T04:09:47;112.78;;;107.78;;
64157;SDS011;50449;51.528;5.076;2023-06-14T04:12:13;113.88;;;108.38;;
64157;SDS011;50449;51.528;5.076;2023-06-14T04:14:39;114.72;;;109.43;;
64157;SDS011;50449;51.528;5.076;2023-06-14T04:17:05;114.18;;;109.20;;
64157;SDS011;50449;51.528;5.076;2023-06-14T04:19:31;116.50;;;111.30;;
64157;SDS011;50449;51.528;5.076;2023-06-14T04:21:57;114.97;;;109.82;;
64157;SDS011;50449;51.528;5.076;2023-06-14T04:24:24;116.45;;;111.18;;
64157;SDS011;50449;51.528;5.076;2023-06-14T04:26:56;115.30;;;109.90;;
64157;SDS011;50449;51.528;5.076;2023-06-14T04:29:23;118.38;;;112.57;;
64157;SDS011;50449;51.528;5.076;2023-06-14T04:31:49;115.63;;;110.53;;
64157;SDS011;50449;51.528;5.076;2023-06-14T04:34:14;116.43;;;111.05;;
64157;SDS011;50449;51.528;5.076;2023-06-14T04:36:43;111.93;;;106.38;;
64157;SDS011;50449;51.528;5.076;2023-06-14T04:39:18;116.20;;;110.55;;
64157;SDS011;50449;51.528;5.076;2023-06-14T04:41:46;111.43;;;106.20;;
64157;SDS011;50449;51.528;5.076;2023-06-14T04:44:11;115.45;;;109.78;;
64157;SDS011;50449;51.528;5.076;2023-06-14T04:46:37;113.15;;;108.07;;
64157;SDS011;50449;51.528;5.076;2023-06-14T04:49:11;110.97;;;105.95;;
64157;SDS011;50449;51.528;5.076;2023-06-14T04:51:39;113.45;;;108.05;;
64157;SDS011;50449;51.528;5.076;2023-06-14T04:54:05;113.63;;;108.30;;
64157;SDS011;50449;51.528;5.076;2023-06-14T04:56:34;113.78;;;108.47;;
64157;SDS011;50449;51.528;5.076;2023-06-14T04:59:02;113.07;;;107.72;;
64157;SDS011;50449;51.528;5.076;2023-06-14T05:01:29;114.85;;;108.72;;
64157;SDS011;50449;51.528;5.076;2023-06-14T05:03:56;111.40;;;106.47;;
64157;SDS011;50449;51.528;5.076;2023-06-14T05:06:22;112.88;;;107.35;;
64157;SDS011;50449;51.528;5.076;2023-06-14T05:08:48;110.85;;;105.75;;
64157;SDS011;50449;51.528;5.076;2023-06-14T05:11:13;111.47;;;106.45;;
64157;SDS011;50449;51.528;5.076;2023-06-14T05:13:39;109.53;;;104.53;;
64157;SDS011;50449;51.528;5.076;2023-06-14T05:16:06;107.32;;;102.32;;
64157;SDS011;50449;51.528;5.076;2023-06-14T05:18:31;108.38;;;103.05;;
64157;SDS011;50449;51.528;5.076;2023-06-14T05:20:59;108.68;;;103.93;;
64157;SDS011;50449;51.528;5.076;2023-06-14T05:23:25;108.30;;;103.20;;
64157;SDS011;50449;51.528;5.076;2023-06-14T05:25:50;109.28;;;104.22;;
64157;SDS011;50449;51.528;5.076;2023-06-14T05:28:16;108.20;;;103.32;;
64157;SDS011;50449;51.528;5.076;2023-06-14T05:30:41;107.45;;;102.65;;
64157;SDS011;50449;51.528;5.076;2023-06-14T05:33:07;111.80;;;106.90;;
64157;SDS011;50449;51.528;5.076;2023-06-14T05:35:33;110.95;;;106.05;;
64157;SDS011;50449;51.528;5.076;2023-06-14T05:37:58;107.18;;;102.35;;
64157;SDS011;50449;51.528;5.076;2023-06-14T05:40:24;107.95;;;102.90;;
64157;SDS011;50449;51.528;5.076;2023-06-14T05:42:49;109.28;;;104.40;;
64157;SDS011;50449;51.528;5.076;2023-06-14T05:45:15;107.75;;;101.93;;
64157;SDS011;50449;51.528;5.076;2023-06-14T05:47:41;108.93;;;103.03;;
64157;SDS011;50449;51.528;5.076;2023-06-14T05:50:07;107.65;;;102.32;;
64157;SDS011;50449;51.528;5.076;2023-06-14T05:52:33;106.80;;;102.00;;
64157;SDS011;50449;51.528;5.076;2023-06-14T05:54:59;104.22;;;99.22;;
64157;SDS011;50449;51.528;5.076;2023-06-14T05:57:25;109.38;;;103.53;;
64157;SDS011;50449;51.528;5.076;2023-06-14T05:59:50;104.75;;;99.40;;
64157;SDS011;50449;51.528;5.076;2023-06-14T06:02:16;106.20;;;101.00;;
64157;SDS011;50449;51.528;5.076;2023-06-14T06:04:41;107.45;;;102.45;;
64157;SDS011;50449;51.528;5.076;2023-06-14T06:07:07;103.22;;;98.57;;
64157;SDS011;50449;51.528;5.076;2023-06-14T06:09:32;105.10;;;100.28;;
64157;SDS011;50449;51.528;5.076;2023-06-14T06:11:58;104.35;;;99.10;;
64157;SDS011;50449;51.528;5.076;2023-06-14T06:14:23;105.97;;;101.13;;
64157;SDS011;50449;51.528;5.076;2023-06-14T06:16:49;104.63;;;99.80;;
64157;SDS011;50449;51.528;5.076;2023-06-14T06:19:14;104.35;;;99.10;;
64157;SDS011;50449;51.528;5.076;2023-06-14T06:21:40;107.05;;;101.75;;
64157;SDS011;50449;51.528;5.076;2023-06-14T06:24:05;100.10;;;95.43;;
64157;SDS011;50449;51.528;5.076;2023-06-14T06:26:31;103.57;;;98.78;;
64157;SDS011;50449;51.528;5.076;2023-06-14T06:28:57;104.68;;;99.75;;
64157;SDS011;50449;51.528;5.076;2023-06-14T06:31:23;105.45;;;99.75;;
64157;SDS011;50449;51.528;5.076;2023-06-14T06:33:49;104.45;;;98.85;;
64157;SDS011;50449;51.528;5.076;2023-06-14T06:36:15;100.82;;;95.93;;
64157;SDS011;50449;51.528;5.076;2023-06-14T06:38:40;103.25;;;98.47;;
64157;SDS011;50449;51.528;5.076;2023-06-14T06:41:06;107.65;;;102.53;;
64157;SDS011;50449;51.528;5.076;2023-06-14T06:43:31;107.82;;;102.45;;
64157;SDS011;50449;51.528;5.076;2023-06-14T06:45:57;106.72;;;101.93;;
64157;SDS011;50449;51.528;5.076;2023-06-14T06:48:22;106.28;;;101.47;;
64157;SDS011;50449;51.528;5.076;2023-06-14T06:50:47;104.90;;;99.90;;
64157;SDS011;50449;51.528;5.076;2023-06-14T06:53:13;107.50;;;102.57;;
64157;SDS011;50449;51.528;5.076;2023-06-14T06:55:38;105.50;;;100.50;;
64157;SDS011;50449;51.528;5.076;2023-06-14T06:58:04;106.95;;;101.85;;
64157;SDS011;50449;51.528;5.076;2023-06-14T07:00:30;105.55;;;100.60;;
64157;SDS011;50449;51.528;5.076;2023-06-14T07:02:56;108.50;;;103.25;;
64157;SDS011;50449;51.528;5.076;2023-06-14T07:05:22;104.57;;;99.90;;
64157;SDS011;50449;51.528;5.076;2023-06-14T07:07:47;107.25;;;102.28;;
64157;SDS011;50449;51.528;5.076;2023-06-14T07:10:13;107.70;;;102.70;;
64157;SDS011;50449;51.528;5.076;2023-06-14T07:12:38;109.75;;;104.50;;
64157;SDS011;50449;51.528;5.076;2023-06-14T07:15:05;109.13;;;104.03;;
64157;SDS011;50449;51.528;5.076;2023-06-14T07:17:34;110.70;;;105.40;;
64157;SDS011;50449;51.528;5.076;2023-06-14T07:20:01;108.53;;;103.15;;
64157;SDS011;50449;51.528;5.076;2023-06-14T07:22:33;109.88;;;104.57;;
64157;SDS011;50449;51.528;5.076;2023-06-14T07:24:58;110.57;;;105.38;;
64157;SDS011;50449;51.528;5.076;2023-06-14T07:27:24;107.20;;;102.40;;
64157;SDS011;50449;51.528;5.076;2023-06-14T07:29:49;111.10;;;105.65;;
64157;SDS011;50449;51.528;5.076;2023-06-14T07:32:14;110.43;;;105.13;;
64157;SDS011;50449;51.528;5.076;2023-06-14T07:34:40;110.05;;;105.05;;
64157;SDS011;50449;51.528;5.076;2023-06-14T07:37:05;108.15;;;103.25;;
64157;SDS011;50449;51.528;5.076;2023-06-14T07:39:31;111.68;;;106.65;;
64157;SDS011;50449;51.528;5.076;2023-06-14T07:41:56;111.05;;;105.57;;
64157;SDS011;50449;51.528;5.076;2023-06-14T07:44:22;110.22;;;105.05;;
64157;SDS011;50449;51.528;5.076;2023-06-14T07:46:47;110.78;;;105.63;;
64157;SDS011;50449;51.528;5.076;2023-06-14T07:49:14;111.60;;;106.40;;
64157;SDS011;50449;51.528;5.076;2023-06-14T07:51:40;111.65;;;106.57;;
64157;SDS011;50449;51.528;5.076;2023-06-14T07:54:05;114.38;;;109.15;;
64157;SDS011;50449;51.528;5.076;2023-06-14T07:56:32;112.85;;;107.53;;
64157;SDS011;50449;51.528;5.076;2023-06-14T07:58:58;117.53;;;112.18;;
64157;SDS011;50449;51.528;5.076;2023-06-14T08:01:23;115.22;;;109.38;;
64157;SDS011;50449;51.528;5.076;2023-06-14T08:03:50;111.90;;;107.00;;
64157;SDS011;50449;51.528;5.076;2023-06-14T08:06:15;117.53;;;112.18;;
64157;SDS011;50449;51.528;5.076;2023-06-14T08:08:41;115.38;;;110.20;;
64157;SDS011;50449;51.528;5.076;2023-06-14T08:11:06;114.18;;;109.05;;
64157;SDS011;50449;51.528;5.076;2023-06-14T08:13:32;112.05;;;107.05;;
64157;SDS011;50449;51.528;5.076;2023-06-14T08:15:57;113.80;;;108.60;;
64157;SDS011;50449;51.528;5.076;2023-06-14T08:18:23;114.70;;;109.68;;
64157;SDS011;50449;51.528;5.076;2023-06-14T08:20:49;120.65;;;115.15;;
64157;SDS011;50449;51.528;5.076;2023-06-14T08:23:15;119.60;;;114.25;;
64157;SDS011;50449;51.528;5.076;2023-06-14T08:25:44;119.65;;;114.05;;
64157;SDS011;50449;51.528;5.076;2023-06-14T08:28:10;119.80;;;113.60;;
64157;SDS011;50449;51.528;5.076;2023-06-14T08:30:35;115.90;;;110.22;;
64157;SDS011;50449;51.528;5.076;2023-06-14T08:33:00;119.00;;;113.60;;
64157;SDS011;50449;51.528;5.076;2023-06-14T08:35:26;118.50;;;113.32;;
64157;SDS011;50449;51.528;5.076;2023-06-14T08:37:51;123.10;;;117.60;;
64157;SDS011;50449;51.528;5.076;2023-06-14T08:40:23;120.13;;;114.55;;
64157;SDS011;50449;51.528;5.076;2023-06-14T08:42:52;123.18;;;117.78;;
64157;SDS011;50449;51.528;5.076;2023-06-14T08:45:20;122.80;;;117.47;;
64157;SDS011;50449;51.528;5.076;2023-06-14T08:47:46;123.15;;;117.75;;
64157;SDS011;50449;51.528;5.076;2023-06-14T08:50:20;117.80;;;112.72;;
64157;SDS011;50449;51.528;5.076;2023-06-14T08:52:48;122.38;;;115.70;;
64157;SDS011;50449;51.528;5.076;2023-06-14T08:55:18;122.35;;;116.85;;
64157;SDS011;50449;51.528;5.076;2023-06-14T08:57:45;119.97;;;114.57;;
64157;SDS011;50449;51.528;5.076;2023-06-14T09:00:12;120.60;;;115.20;;
64157;SDS011;50449;51.528;5.076;2023-06-14T09:02:38;122.63;;;116.78;;
64157;SDS011;50449;51.528;5.076;2023-06-14T09:05:11;127.03;;;121.40;;
64157;SDS011;50449;51.528;5.076;2023-06-14T09:07:38;124.75;;;119.22;;
64157;SDS011;50449;51.528;5.076;2023-06-14T09:10:10;123.65;;;118.15;;
64157;SDS011;50449;51.528;5.076;2023-06-14T09:12:37;125.85;;;120.35;;
64157;SDS011;50449;51.528;5.076;2023-06-14T09:15:04;132.10;;;126.25;;
64157;SDS011;50449;51.528;5.076;2023-06-14T09:17:37;127.57;;;121.68;;
64157;SDS011;50449;51.528;5.076;2023-06-14T09:20:06;126.95;;;121.07;;
64157;SDS011;50449;51.528;5.076;2023-06-14T09:22:43;130.23;;;124.30;;
64157;SDS011;50449;51.528;5.076;2023-06-14T09:25:08;131.38;;;125.47;;
64157;SDS011;50449;51.528;5.076;2023-06-14T09:27:34;127.82;;;122.38;;
64157;SDS011;50449;51.528;5.076;2023-06-14T09:30:01;130.10;;;124.40;;
64157;SDS011;50449;51.528;5.076;2023-06-14T09:32:28;130.45;;;124.75;;
64157;SDS011;50449;51.528;5.076;2023-06-14T09:34:53;128.32;;;122.70;;
64157;SDS011;50449;51.528;5.076;2023-06-14T09:37:26;129.15;;;123.57;;
64157;SDS011;50449;51.528;5.076;2023-06-14T09:39:53;133.40;;;127.47;;
64157;SDS011;50449;51.528;5.076;2023-06-14T09:42:19;132.35;;;126.72;;
64157;SDS011;50449;51.528;5.076;2023-06-14T09:44:46;134.63;;;128.63;;
64157;SDS011;50449;51.528;5.076;2023-06-14T09:47:12;127.88;;;122.47;;
64157;SDS011;50449;51.528;5.076;2023-06-14T09:49:39;135.70;;;129.80;;
64157;SDS011;50449;51.528;5.076;2023-06-14T09:52:05;133.93;;;127.68;;
64157;SDS011;50449;51.528;5.076;2023-06-14T09:54:32;135.02;;;128.65;;
64157;SDS011;50449;51.528;5.076;2023-06-14T09:57:01;134.93;;;129.13;;
64157;SDS011;50449;51.528;5.076;2023-06-14T09:59:29;135.70;;;129.60;;
64157;SDS011;50449;51.528;5.076;2023-06-14T10:01:58;138.93;;;132.93;;
64157;SDS011;50449;51.528;5.076;2023-06-14T10:04:25;136.23;;;130.43;;
64157;SDS011;50449;51.528;5.076;2023-06-14T10:06:55;140.88;;;134.88;;
64157;SDS011;50449;51.528;5.076;2023-06-14T10:09:20;140.38;;;134.27;;
64157;SDS011;50449;51.528;5.076;2023-06-14T10:11:47;140.25;;;133.85;;
64157;SDS011;50449;51.528;5.076;2023-06-14T10:14:12;141.68;;;135.52;;
64157;SDS011;50449;51.528;5.076;2023-06-14T10:16:45;148.05;;;141.77;;
64157;SDS011;50449;51.528;5.076;2023-06-14T10:19:19;140.73;;;134.52;;
64157;SDS011;50449;51.528;5.076;2023-06-14T10:21:58;145.00;;;138.82;;
64157;SDS011;50449;51.528;5.076;2023-06-14T10:24:40;143.63;;;137.52;;
64157;SDS011;50449;51.528;5.076;2023-06-14T10:27:07;146.13;;;140.02;;
64157;SDS011;50449;51.528;5.076;2023-06-14T10:32:23;150.73;;;144.50;;
64157;SDS011;50449;51.528;5.076;2023-06-14T10:35:05;147.18;;;141.07;;
64157;SDS011;50449;51.528;5.076;2023-06-14T10:37:34;147.63;;;141.40;;
64157;SDS011;50449;51.528;5.076;2023-06-14T10:40:00;149.68;;;143.15;;
64157;SDS011;50449;51.528;5.076;2023-06-14T10:42:31;148.57;;;142.43;;
64157;SDS011;50449;51.528;5.076;2023-06-14T10:44:57;152.18;;;145.85;;
64157;SDS011;50449;51.528;5.076;2023-06-14T10:50:09;156.25;;;149.75;;
64157;SDS011;50449;51.528;5.076;2023-06-14T10:52:40;156.15;;;149.73;;
64157;SDS011;50449;51.528;5.076;2023-06-14T11:00:16;154.80;;;147.75;;
64157;SDS011;50449;51.528;5.076;2023-06-14T11:11:00;156.88;;;150.40;;
64157;SDS011;50449;51.528;5.076;2023-06-14T11:13:31;160.48;;;153.88;;
64157;SDS011;50449;51.528;5.076;2023-06-14T11:15:57;151.48;;;145.02;;
64157;SDS011;50449;51.528;5.076;2023-06-14T11:18:23;156.88;;;149.93;;
64157;SDS011;50449;51.528;5.076;2023-06-14T11:20:55;156.07;;;149.63;;
64157;SDS011;50449;51.528;5.076;2023-06-14T11:23:21;160.52;;;153.85;;
64157;SDS011;50449;51.528;5.076;2023-06-14T11:25:51;164.60;;;157.90;;
64157;SDS011;50449;51.528;5.076;2023-06-14T11:28:17;159.57;;;152.77;;
64157;SDS011;50449;51.528;5.076;2023-06-14T11:30:45;167.90;;;161.00;;
64157;SDS011;50449;51.528;5.076;2023-06-14T11:33:11;165.35;;;158.55;;
64157;SDS011;50449;51.528;5.076;2023-06-14T11:35:37;164.25;;;157.30;;
64157;SDS011;50449;51.528;5.076;2023-06-14T11:38:02;163.60;;;156.52;;
64157;SDS011;50449;51.528;5.076;2023-06-14T11:40:27;170.80;;;162.80;;
64157;SDS011;50449;51.528;5.076;2023-06-14T11:43:00;171.48;;;164.38;;
64157;SDS011;50449;51.528;5.076;2023-06-14T11:45:27;166.65;;;159.93;;
64157;SDS011;50449;51.528;5.076;2023-06-14T11:47:54;172.05;;;164.98;;
64157;SDS011;50449;51.528;5.076;2023-06-14T11:50:24;168.32;;;160.80;;
64157;SDS011;50449;51.528;5.076;2023-06-14T11:52:59;172.90;;;165.45;;
64157;SDS011;50449;51.528;5.076;2023-06-14T11:55:32;173.45;;;166.25;;
64157;SDS011;50449;51.528;5.076;2023-06-14T11:58:01;173.88;;;166.60;;
64157;SDS011;50449;51.528;5.076;2023-06-14T12:00:26;171.43;;;164.40;;
64157;SDS011;50449;51.528;5.076;2023-06-14T12:02:55;171.60;;;164.50;;
64157;SDS011;50449;51.528;5.076;2023-06-14T12:05:21;175.88;;;168.68;;
64157;SDS011;50449;51.528;5.076;2023-06-14T12:07:47;175.20;;;168.05;;
64157;SDS011;50449;51.528;5.076;2023-06-14T12:10:13;178.02;;;170.85;;
64157;SDS011;50449;51.528;5.076;2023-06-14T12:12:39;179.18;;;171.98;;
64157;SDS011;50449;51.528;5.076;2023-06-14T12:15:06;175.10;;;167.88;;
64157;SDS011;50449;51.528;5.076;2023-06-14T12:17:33;175.68;;;168.57;;
64157;SDS011;50449;51.528;5.076;2023-06-14T12:20:04;176.55;;;169.25;;
64157;SDS011;50449;51.528;5.076;2023-06-14T12:22:51;178.45;;;171.07;;
64157;SDS011;50449;51.528;5.076;2023-06-14T12:25:28;179.63;;;172.25;;
64157;SDS011;50449;51.528;5.076;2023-06-14T12:28:04;176.98;;;169.85;;
64157;SDS011;50449;51.528;5.076;2023-06-14T12:30:31;178.00;;;170.73;;
64157;SDS011;50449;51.528;5.076;2023-06-14T12:32:57;178.60;;;171.40;;
64157;SDS011;50449;51.528;5.076;2023-06-14T12:35:22;182.95;;;175.05;;
64157;SDS011;50449;51.528;5.076;2023-06-14T12:37:48;182.13;;;174.68;;
64157;SDS011;50449;51.528;5.076;2023-06-14T12:40:13;180.00;;;172.60;;
64157;SDS011;50449;51.528;5.076;2023-06-14T12:42:39;182.65;;;175.38;;
64157;SDS011;50449;51.528;5.076;2023-06-14T12:45:06;182.32;;;174.32;;
64157;SDS011;50449;51.528;5.076;2023-06-14T12:47:32;185.18;;;177.82;;
64157;SDS011;50449;51.528;5.076;2023-06-14T12:49:57;184.32;;;176.98;;
64157;SDS011;50449;51.528;5.076;2023-06-14T12:52:22;182.05;;;174.77;;
64157;SDS011;50449;51.528;5.076;2023-06-14T12:54:48;186.55;;;178.85;;
64157;SDS011;50449;51.528;5.076;2023-06-14T12:57:13;189.70;;;181.90;;
64157;SDS011;50449;51.528;5.076;2023-06-14T12:59:39;183.00;;;175.65;;
64157;SDS011;50449;51.528;5.076;2023-06-14T13:02:14;183.75;;;176.38;;
64157;SDS011;50449;51.528;5.076;2023-06-14T13:04:42;187.30;;;179.75;;
64157;SDS011;50449;51.528;5.076;2023-06-14T13:07:08;189.23;;;181.63;;
64157;SDS011;50449;51.528;5.076;2023-06-14T13:09:35;184.95;;;177.52;;
64157;SDS011;50449;51.528;5.076;2023-06-14T13:12:01;190.32;;;182.40;;
64157;SDS011;50449;51.528;5.076;2023-06-14T13:14:26;193.45;;;185.68;;
64157;SDS011;50449;51.528;5.076;2023-06-14T13:16:52;190.82;;;182.93;;
64157;SDS011;50449;51.528;5.076;2023-06-14T13:19:17;195.35;;;187.02;;
64157;SDS011;50449;51.528;5.076;2023-06-14T13:21:43;187.63;;;180.18;;
64157;SDS011;50449;51.528;5.076;2023-06-14T13:24:08;189.68;;;182.02;;
64157;SDS011;50449;51.528;5.076;2023-06-14T13:26:34;189.77;;;182.10;;
64157;SDS011;50449;51.528;5.076;2023-06-14T13:29:00;191.50;;;183.82;;
64157;SDS011;50449;51.528;5.076;2023-06-14T13:31:25;192.70;;;185.07;;
64157;SDS011;50449;51.528;5.076;2023-06-14T13:33:51;192.60;;;184.85;;
64157;SDS011;50449;51.528;5.076;2023-06-14T13:36:16;197.63;;;189.65;;
64157;SDS011;50449;51.528;5.076;2023-06-14T13:38:42;193.60;;;185.77;;
64157;SDS011;50449;51.528;5.076;2023-06-14T13:41:07;196.20;;;188.30;;
64157;SDS011;50449;51.528;5.076;2023-06-14T13:43:33;197.70;;;189.85;;
64157;SDS011;50449;51.528;5.076;2023-06-14T13:45:58;194.77;;;186.88;;
64157;SDS011;50449;51.528;5.076;2023-06-14T13:48:23;198.48;;;190.27;;
64157;SDS011;50449;51.528;5.076;2023-06-14T13:50:49;197.50;;;189.75;;
64157;SDS011;50449;51.528;5.076;2023-06-14T13:53:15;199.98;;;191.85;;
64157;SDS011;50449;51.528;5.076;2023-06-14T13:55:40;197.30;;;189.50;;
64157;SDS011;50449;51.528;5.076;2023-06-14T13:58:06;197.45;;;189.10;;
64157;SDS011;50449;51.528;5.076;2023-06-14T14:00:31;198.50;;;190.65;;
64157;SDS011;50449;51.528;5.076;2023-06-14T14:02:57;199.65;;;191.65;;
64157;SDS011;50449;51.528;5.076;2023-06-14T14:05:24;201.70;;;193.77;;
64157;SDS011;50449;51.528;5.076;2023-06-14T14:07:54;196.90;;;188.30;;
64157;SDS011;50449;51.528;5.076;2023-06-14T14:10:20;202.00;;;193.32;;
64157;SDS011;50449;51.528;5.076;2023-06-14T14:12:45;198.73;;;190.88;;
64157;SDS011;50449;51.528;5.076;2023-06-14T14:15:11;201.55;;;193.52;;
64157;SDS011;50449;51.528;5.076;2023-06-14T14:17:38;201.20;;;193.25;;
64157;SDS011;50449;51.528;5.076;2023-06-14T14:20:04;199.95;;;191.77;;
64157;SDS011;50449;51.528;5.076;2023-06-14T14:22:30;199.45;;;191.20;;